Time;durP1;ratioP1;P1;durP2;ratioP2;P2;SDS_P1;SDS_P2;PMS_P1;PMS_P2;Temp;Humidity;BMP_temperature;BMP_pressure;BME280_temperature;BME280_humidity;BME280_pressure;Samples;Min_cycle;Max_cycle;Signal;HPM_P1;HPM_P2
2022/05/29 00:01:08;;;;;;;12.50;9.20;;;;;;;7.79;71.13;97617.11;106327;1277;22882;-83
2022/05/29 00:03:36;;;;;;;23.30;8.70;;;;;;;7.85;70.91;97615.73;106227;1278;23957;-84
2022/05/29 00:06:05;;;;;;;10.90;8.80;;;;;;;7.92;70.64;97616.02;106422;1277;26464;-85
2022/05/29 00:08:37;;;;;;;12.70;9.50;;;;;;;8.00;70.31;97614.42;106433;1277;26520;-84
2022/05/29 00:11:09;;;;;;;11.70;9.20;;;;;;;8.02;70.14;97614.77;106601;1277;22669;-84
2022/05/29 00:13:37;;;;;;;12.70;9.50;;;;;;;8.03;70.11;97614.48;107749;1277;23566;-86
2022/05/29 00:16:05;;;;;;;12.80;8.90;;;;;;;8.04;69.89;97611.41;109440;1277;22546;-82
2022/05/29 00:18:35;;;;;;;12.20;9.20;;;;;;;8.02;69.54;97610.79;106718;1277;22553;-85
2022/05/29 00:21:05;;;;;;;10.80;8.90;;;;;;;8.01;69.76;97608.02;106300;1277;22561;-83
2022/05/29 00:23:40;;;;;;;11.40;8.70;;;;;;;7.99;69.37;97602.63;106178;1277;22570;-83
2022/05/29 00:26:09;;;;;;;15.30;11.80;;;;;;;8.02;69.44;97600.16;106256;1277;23598;-83
2022/05/29 00:28:37;;;;;;;14.60;11.00;;;;;;;8.04;69.55;97602.02;106222;1277;22549;-83
2022/05/29 00:31:05;;;;;;;47.90;44.00;;;;;;;8.04;69.44;97600.14;106356;1277;22562;-85
2022/05/29 00:33:33;;;;;;;15.70;14.00;;;;;;;7.97;69.52;97601.36;106380;1275;23973;-85
2022/05/29 00:36:02;;;;;;;12.70;10.90;;;;;;;7.85;69.31;97603.60;106307;1277;22630;-84
2022/05/29 00:38:37;;;;;;;11.70;8.10;;;;;;;7.70;69.24;97598.05;106274;1277;24457;-83
2022/05/29 00:41:18;;;;;;;12.40;9.40;;;;;;;7.57;69.16;97598.28;106203;1277;25356;-87
2022/05/29 00:44:23;;;;;;;9.70;7.30;;;;;;;7.43;69.40;97602.55;106089;1280;22554;-80
2022/05/29 00:47:20;;;;;;;9.40;7.30;;;;;;;7.32;70.00;97605.15;105933;1278;23204;-88
2022/05/29 00:49:50;;;;;;;10.50;7.40;;;;;;;7.32;70.26;97604.34;106165;1277;22710;-81
2022/05/29 00:52:24;;;;;;;10.00;8.00;;;;;;;7.38;70.93;97603.67;106607;1277;22752;-86
2022/05/29 00:54:55;;;;;;;;;;;;;;;7.32;69.73;97601.34;106368;1277;22580;-89
2022/05/29 00:57:31;;;;;;;17.00;13.30;;;;;;;7.11;69.38;97596.34;106093;1277;22703;-90
2022/05/29 01:00:09;;;;;;;10.60;8.30;;;;;;;6.83;70.04;97591.63;106320;1277;22560;-90
2022/05/29 01:02:38;;;;;;;11.90;7.80;;;;;;;6.51;70.43;97589.17;106973;1277;22532;-93
2022/05/29 01:05:10;;;;;;;12.00;7.70;;;;;;;6.26;70.56;97589.55;106866;1277;25352;-90
2022/05/29 01:07:38;;;;;;;10.50;8.70;;;;;;;6.03;70.61;97595.91;106829;1277;25370;-89
2022/05/29 01:10:07;;;;;;;12.20;7.50;;;;;;;5.89;70.46;97598.31;106496;1277;22562;-90
2022/05/29 01:12:47;;;;;;;10.80;7.70;;;;;;;5.77;70.67;97591.95;106854;1277;23898;-88
2022/05/29 01:15:37;;;;;;;15.40;7.60;;;;;;;5.74;70.87;97596.35;106111;1277;22724;-86
2022/05/29 01:18:35;;;;;;;9.90;7.30;;;;;;;5.64;71.10;97593.23;105929;1277;22547;-82
2022/05/29 01:21:24;;;;;;;11.20;7.30;;;;;;;5.44;72.14;97589.14;105973;1277;25394;-89
2022/05/29 01:24:11;;;;;;;8.80;6.90;;;;;;;5.40;71.75;97591.07;105994;1277;24244;-86
2022/05/29 01:27:03;;;;;;;14.70;12.90;;;;;;;5.25;71.67;97592.45;105889;1278;22541;-87
2022/05/29 01:29:43;;;;;;;10.90;7.80;;;;;;;5.13;71.51;97594.36;106036;1278;24524;-90
2022/05/29 01:32:45;;;;;;;10.50;8.80;;;;;;;5.03;71.94;97589.84;106326;1280;25467;-86
2022/05/29 01:35:31;;;;;;;10.50;8.20;;;;;;;4.97;72.74;97591.55;105772;1277;22748;-92
2022/05/29 01:38:11;;;;;;;8.70;7.20;;;;;;;4.81;72.73;97586.55;105964;1277;22596;-88
2022/05/29 01:40:48;;;;;;;14.10;7.80;;;;;;;4.66;73.62;97588.44;106011;1277;22692;-88
2022/05/29 01:43:45;;;;;;;11.90;8.80;;;;;;;4.49;73.35;97596.82;105819;1278;22882;-86
2022/05/29 01:46:34;;;;;;;11.40;7.70;;;;;;;4.38;73.19;97599.42;105692;1277;22553;-90
2022/05/29 01:49:17;;;;;;;13.00;7.40;;;;;;;4.38;73.25;97603.80;106113;1277;22896;-88
2022/05/29 01:51:52;;;;;;;10.70;8.70;;;;;;;4.42;73.00;97604.71;106033;1277;22621;-85
2022/05/29 01:54:57;;;;;;;9.30;8.30;;;;;;;4.43;74.22;97603.43;105836;1278;25369;-88
2022/05/29 01:57:29;;;;;;;;;;;;;;;4.22;75.15;97593.37;105861;1277;22983;-88
2022/05/29 02:00:05;;;;;;;15.20;8.80;;;;;;;4.02;75.28;97597.61;106066;1277;23299;-87
2022/05/29 02:02:53;;;;;;;10.60;7.70;;;;;;;3.85;74.85;97599.86;105842;1277;24888;-88
2022/05/29 02:05:37;;;;;;;11.60;8.40;;;;;;;3.81;75.05;97600.75;106066;1277;22554;-87
2022/05/29 02:08:15;;;;;;;11.60;10.20;;;;;;;3.93;74.92;97604.09;106025;1277;22858;-87
2022/05/29 02:11:06;;;;;;;11.00;8.80;;;;;;;4.03;75.48;97595.48;106167;1277;23997;-82
2022/05/29 02:13:37;;;;;;;12.10;9.60;;;;;;;3.91;76.46;97595.40;106272;1277;22573;-89
2022/05/29 02:16:27;;;;;;;14.80;10.90;;;;;;;3.74;77.54;97600.78;106082;1277;22881;-88
2022/05/29 02:19:02;;;;;;;13.00;10.90;;;;;;;3.59;77.15;97603.34;106035;1277;22550;-87
2022/05/29 02:21:45;;;;;;;15.70;11.10;;;;;;;3.58;76.78;97609.35;106026;1277;25411;-89
2022/05/29 02:24:17;;;;;;;27.80;25.50;;;;;;;3.69;76.26;97613.50;106278;1277;24834;-87
2022/05/29 02:26:53;;;;;;;15.50;13.70;;;;;;;3.73;77.46;97608.19;106040;1277;24275;-86
2022/05/29 02:29:21;;;;;;;13.60;11.90;;;;;;;3.66;78.59;97605.02;105837;1277;22563;-85
2022/05/29 02:32:12;;;;;;;13.60;11.10;;;;;;;3.47;78.77;97605.95;105848;1277;22618;-89
2022/05/29 02:35:03;;;;;;;10.30;9.20;;;;;;;3.33;77.95;97610.47;106164;1277;25362;-88
2022/05/29 02:37:55;;;;;;;18.80;17.00;;;;;;;3.24;78.30;97611.85;105847;1277;22542;-85
2022/05/29 02:40:48;;;;;;;13.90;12.30;;;;;;;3.20;78.38;97612.25;105789;1277;22555;-85
2022/05/29 02:44:05;;;;;;;16.70;10.50;;;;;;;3.16;77.82;97616.55;105835;1277;22628;-84
2022/05/29 02:46:55;;;;;;;12.30;10.70;;;;;;;3.24;77.83;97615.90;105573;1284;22585;-84
2022/05/29 02:49:42;;;;;;;13.80;11.20;;;;;;;3.24;78.74;97618.79;105362;1284;24430;-87
2022/05/29 02:52:16;;;;;;;13.20;10.10;;;;;;;3.22;79.20;97616.52;106283;1284;22574;-89
2022/05/29 02:54:44;;;;;;;13.80;10.70;;;;;;;3.22;79.32;97621.54;105876;1284;22646;-87
2022/05/29 02:57:19;;;;;;;13.70;12.20;;;;;;;3.25;78.48;97622.98;105206;1284;25413;-85
2022/05/29 02:59:52;;;;;;;15.60;13.10;;;;;;;3.25;78.51;97630.03;105305;1283;24216;-86
2022/05/29 03:02:54;;;;;;;14.40;12.80;;;;;;;3.23;78.70;97629.64;106268;1284;24309;-87
2022/05/29 03:05:34;;;;;;;20.30;18.20;;;;;;;3.17;78.67;97633.38;105327;1284;23951;-86
2022/05/29 03:08:21;;;;;;;15.70;13.60;;;;;;;3.21;78.79;97632.77;105058;1284;24448;-87
2022/05/29 03:11:12;;;;;;;13.10;11.50;;;;;;;3.33;79.76;97633.84;105100;1284;24293;-86
2022/05/29 03:13:48;;;;;;;15.40;13.10;;;;;;;3.33;79.63;97631.66;105677;1284;22558;-87
2022/05/29 03:16:44;;;;;;;12.60;11.00;;;;;;;3.40;80.79;97632.50;105653;1284;24116;-88
2022/05/29 03:19:35;;;;;;;15.20;12.40;;;;;;;3.25;79.49;97631.41;104937;1288;24274;-87
2022/05/29 03:22:46;;;;;;;14.00;12.40;;;;;;;3.32;79.31;97633.37;105315;1284;22589;-88
2022/05/29 03:25:25;;;;;;;14.50;12.90;;;;;;;3.51;79.29;97633.35;105912;1277;25502;-88
2022/05/29 03:27:57;;;;;;;13.40;12.00;;;;;;;3.63;80.14;97636.45;105910;1278;22621;-88
2022/05/29 03:30:33;;;;;;;14.50;13.00;;;;;;;3.59;80.36;97638.30;105835;1277;23936;-87
2022/05/29 03:33:06;;;;;;;16.20;13.90;;;;;;;3.56;80.30;97642.86;105703;1278;25268;-85
2022/05/29 03:35:41;;;;;;;15.50;14.00;;;;;;;3.59;80.46;97641.77;106104;1277;24269;-86
2022/05/29 03:38:08;;;;;;;15.30;12.90;;;;;;;3.62;80.18;97643.90;106048;1277;22550;-86
2022/05/29 03:40:39;;;;;;;13.50;12.10;;;;;;;3.75;80.12;97644.86;105962;1277;22560;-84
2022/05/29 03:43:07;;;;;;;15.20;13.80;;;;;;;3.85;81.54;97640.86;105773;1278;24373;-85
2022/05/29 03:45:35;;;;;;;16.00;12.70;;;;;;;3.84;81.34;97640.67;105864;1278;22560;-85
2022/05/29 03:48:04;;;;;;;16.30;12.50;;;;;;;3.83;82.13;97639.84;105941;1277;22596;-85
2022/05/29 03:50:34;;;;;;;17.10;12.40;;;;;;;3.89;81.75;97638.31;106012;1277;25418;-85
2022/05/29 03:53:03;;;;;;;15.70;12.50;;;;;;;4.15;81.44;97637.10;106057;1277;23946;-85
2022/05/29 03:55:32;;;;;;;17.30;12.20;;;;;;;4.35;81.89;97637.73;105892;1277;24235;-85
2022/05/29 03:58:00;;;;;;;14.50;13.00;;;;;;;4.38;82.51;97640.98;105819;1277;22570;-85
2022/05/29 04:00:27;;;;;;;37.90;32.60;;;;;;;4.46;82.67;97640.46;105814;1277;24343;-86
2022/05/29 04:02:55;;;;;;;44.30;34.60;;;;;;;4.62;82.49;97646.30;105917;1277;22679;-86
2022/05/29 04:05:24;;;;;;;68.20;54.80;;;;;;;4.85;82.43;97644.90;105975;1277;22665;-86
2022/05/29 04:13:34;;;;;;;60.70;47.60;;;;;;;5.47;81.25;97647.28;105880;1277;22602;-87
2022/05/29 04:16:02;;;;;;;49.90;39.50;;;;;;;5.62;81.12;97649.21;105924;1277;23682;-88
2022/05/29 04:18:30;;;;;;;36.90;31.20;;;;;;;5.76;81.61;97648.63;105941;1277;25366;-87
2022/05/29 04:20:58;;;;;;;24.10;21.10;;;;;;;5.89;81.35;97649.27;105976;1277;22594;-88
2022/05/29 04:23:26;;;;;;;21.60;16.60;;;;;;;6.08;81.45;97648.79;106046;1277;24046;-85
2022/05/29 04:25:54;;;;;;;17.60;15.80;;;;;;;6.28;81.11;97644.81;105960;1277;25452;-86
2022/05/29 04:28:22;;;;;;;20.90;16.70;;;;;;;6.46;80.86;97639.84;105926;1278;24122;-85
2022/05/29 04:30:50;;;;;;;18.80;15.30;;;;;;;6.59;80.95;97632.63;105996;1278;22544;-86
2022/05/29 04:33:18;;;;;;;18.00;15.40;;;;;;;6.78;80.69;97639.17;105922;1277;22692;-87
2022/05/29 04:35:52;;;;;;;19.20;13.80;;;;;;;6.92;81.14;97634.83;105946;1277;25406;-86
2022/05/29 04:38:23;;;;;;;18.80;12.20;;;;;;;7.09;81.04;97637.84;106021;1277;22561;-88
2022/05/29 04:40:51;;;;;;;15.70;12.50;;;;;;;7.27;80.78;97634.29;105975;1277;22692;-85
2022/05/29 04:43:20;;;;;;;14.90;12.10;;;;;;;7.42;80.89;97639.02;106269;1277;22478;-89
2022/05/29 04:45:53;;;;;;;15.80;13.20;;;;;;;7.54;81.06;97643.92;106419;1277;22653;-89
2022/05/29 04:48:22;;;;;;;18.60;13.10;;;;;;;7.65;81.10;97641.65;105844;1277;24321;-88
2022/05/29 04:50:59;;;;;;;17.80;14.00;;;;;;;7.76;81.11;97643.20;105711;1277;25634;-89
2022/05/29 04:53:29;;;;;;;18.20;13.70;;;;;;;7.91;80.83;97646.51;105810;1278;22692;-87
2022/05/29 04:55:58;;;;;;;15.30;12.10;;;;;;;8.05;80.59;97643.86;105933;1277;25636;-86
2022/05/29 04:58:28;;;;;;;13.70;11.90;;;;;;;8.17;80.62;97650.04;105841;1278;22550;-86
2022/05/29 05:00:59;;;;;;;17.40;13.10;;;;;;;8.29;80.12;97645.21;105777;1277;25493;-85
2022/05/29 05:03:27;;;;;;;16.60;13.30;;;;;;;8.39;80.51;97636.92;105910;1277;22548;-85
2022/05/29 05:05:55;;;;;;;17.10;11.90;;;;;;;8.52;80.00;97639.81;105733;1277;22554;-83
2022/05/29 05:08:23;;;;;;;14.10;11.90;;;;;;;8.64;80.03;97637.15;105709;1277;25303;-84
2022/05/29 05:10:51;;;;;;;14.40;11.50;;;;;;;8.77;79.40;97639.00;105694;1277;25656;-84
2022/05/29 05:13:20;;;;;;;14.70;12.30;;;;;;;8.86;78.60;97642.30;105772;1277;24389;-87
2022/05/29 05:15:47;;;;;;;17.30;12.20;;;;;;;8.90;77.57;97634.44;105807;1277;24424;-86
2022/05/29 05:18:15;;;;;;;17.20;13.60;;;;;;;8.95;76.88;97640.64;105889;1277;22574;-86
2022/05/29 05:20:43;;;;;;;16.50;12.70;;;;;;;8.99;76.60;97637.04;105760;1278;22707;-87
2022/05/29 05:23:11;;;;;;;19.40;11.60;;;;;;;9.06;76.58;97634.02;105932;1277;24427;-87
2022/05/29 05:25:39;;;;;;;15.00;10.50;;;;;;;9.17;76.78;97640.23;105889;1277;25409;-87
2022/05/29 05:28:07;;;;;;;12.80;9.90;;;;;;;9.25;75.74;97640.52;106095;1278;22659;-88
2022/05/29 05:30:34;;;;;;;14.10;10.70;;;;;;;9.31;75.19;97645.40;106288;1277;25369;-87
2022/05/29 05:33:03;;;;;;;13.70;10.00;;;;;;;9.36;74.90;97642.67;106003;1278;24425;-88
2022/05/29 05:35:31;;;;;;;12.50;9.80;;;;;;;9.43;74.96;97632.40;105874;1277;25418;-88
2022/05/29 05:37:58;;;;;;;11.40;7.30;;;;;;;9.53;74.81;97633.76;105807;1278;22702;-87
2022/05/29 05:40:26;;;;;;;10.00;6.30;;;;;;;9.64;73.84;97636.45;105844;1277;25267;-87
2022/05/29 05:42:55;;;;;;;11.00;6.50;;;;;;;9.72;72.98;97631.83;105841;1277;25287;-89
2022/05/29 05:45:23;;;;;;;10.90;7.50;;;;;;;9.80;72.14;97635.65;105767;1277;24211;-87
2022/05/29 05:47:51;;;;;;;13.40;8.30;;;;;;;9.87;71.53;97638.31;105865;1280;25427;-90
2022/05/29 05:50:19;;;;;;;13.40;9.50;;;;;;;9.93;71.72;97638.08;105906;1277;24204;-90
2022/05/29 05:52:46;;;;;;;15.00;9.80;;;;;;;10.02;71.25;97637.85;105893;1277;22991;-87
2022/05/29 05:55:14;;;;;;;13.40;9.20;;;;;;;10.06;71.05;97639.98;105870;1278;22554;-88
2022/05/29 05:57:42;;;;;;;14.90;10.00;;;;;;;10.10;71.23;97637.84;105909;1277;25304;-88
2022/05/29 06:00:13;;;;;;;18.90;11.30;;;;;;;10.19;70.66;97639.59;105878;1278;22850;-87
2022/05/29 06:02:42;;;;;;;16.00;9.80;;;;;;;10.26;71.13;97641.28;105763;1278;22537;-86
2022/05/29 06:05:12;;;;;;;13.20;7.50;;;;;;;10.30;71.07;97636.32;105805;1277;22609;-88
2022/05/29 06:07:41;;;;;;;12.90;8.30;;;;;;;10.33;70.37;97641.25;105965;1278;22746;-89
2022/05/29 06:10:11;;;;;;;12.70;7.20;;;;;;;10.42;71.28;97643.27;105949;1278;22570;-88
2022/05/29 06:12:39;;;;;;;12.80;7.40;;;;;;;10.54;70.60;97640.90;105972;1277;22633;-87
2022/05/29 06:15:08;;;;;;;15.00;7.10;;;;;;;10.60;69.60;97641.52;105945;1277;25390;-86
2022/05/29 06:17:35;;;;;;;12.10;7.20;;;;;;;10.64;69.35;97643.26;105956;1277;22692;-89
2022/05/29 06:20:06;;;;;;;10.70;6.60;;;;;;;10.71;69.48;97645.69;105861;1277;24282;-88
2022/05/29 06:22:38;;;;;;;14.10;7.00;;;;;;;10.75;68.87;97643.13;106029;1277;22554;-87
2022/05/29 06:25:07;;;;;;;11.40;5.80;;;;;;;10.78;69.13;97642.33;106419;1277;22922;-86
2022/05/29 06:27:37;;;;;;;9.90;5.20;;;;;;;10.85;68.84;97640.22;106404;1277;22488;-85
2022/05/29 06:30:08;;;;;;;12.30;5.70;;;;;;;10.94;68.27;97643.73;107346;1277;25642;-87
2022/05/29 06:32:37;;;;;;;13.00;5.80;;;;;;;11.00;68.22;97640.63;106442;1278;23065;-86
2022/05/29 06:35:07;;;;;;;13.00;6.60;;;;;;;11.09;68.20;97643.30;106018;1277;25477;-86
2022/05/29 06:37:39;;;;;;;12.00;5.90;;;;;;;11.18;67.81;97642.04;106116;1278;25398;-86
2022/05/29 06:40:12;;;;;;;14.90;6.60;;;;;;;11.24;67.88;97640.45;106253;1278;24105;-87
2022/05/29 06:42:40;;;;;;;10.80;5.20;;;;;;;11.30;67.41;97636.46;106263;1277;22620;-85
2022/05/29 06:45:09;;;;;;;9.60;5.50;;;;;;;11.23;66.70;97646.96;106125;1278;22700;-86
2022/05/29 06:47:39;;;;;;;12.50;6.30;;;;;;;11.26;66.95;97637.87;105962;1278;25637;-87
2022/05/29 06:50:09;;;;;;;12.40;6.50;;;;;;;11.37;67.24;97639.20;106038;1277;24221;-88
2022/05/29 06:52:38;;;;;;;12.70;6.30;;;;;;;11.46;67.60;97637.23;106338;1277;24883;-88
2022/05/29 06:55:08;;;;;;;12.10;6.00;;;;;;;11.56;67.02;97635.44;106214;1277;24346;-86
2022/05/29 06:57:43;;;;;;;15.50;6.80;;;;;;;11.63;66.05;97631.11;106072;1277;23222;-88
2022/05/29 07:08:38;;;;;;;11.50;6.30;;;;;;;12.00;65.26;97622.28;106040;1277;22609;-84
2022/05/29 07:11:22;;;;;;;10.40;5.20;;;;;;;12.04;65.13;97615.84;105973;1280;22619;-89
2022/05/29 07:13:50;;;;;;;13.40;6.00;;;;;;;12.13;65.57;97619.02;106391;1278;25944;-87
2022/05/29 07:16:18;;;;;;;10.30;5.40;;;;;;;12.29;65.72;97614.55;106203;1277;22676;-85
2022/05/29 07:18:50;;;;;;;11.00;5.70;;;;;;;12.47;66.10;97612.16;106165;1277;26628;-85
2022/05/29 07:21:21;;;;;;;12.30;4.80;;;;;;;12.53;62.70;97613.98;105985;1278;25389;-82
2022/05/29 07:23:49;;;;;;;8.60;4.70;;;;;;;12.47;62.22;97616.70;105947;1277;22504;-87
2022/05/29 07:26:17;;;;;;;12.40;5.30;;;;;;;12.45;62.57;97611.75;105930;1277;22677;-86
2022/05/29 07:28:45;;;;;;;9.60;5.60;;;;;;;12.48;61.45;97609.40;106135;1277;24214;-85
2022/05/29 07:31:13;;;;;;;10.30;5.00;;;;;;;12.50;61.06;97609.65;106191;1277;22631;-85
2022/05/29 07:33:42;;;;;;;12.70;5.60;;;;;;;12.48;60.23;97611.33;106637;1278;22638;-86
2022/05/29 07:36:11;;;;;;;9.50;5.00;;;;;;;12.49;60.63;97607.35;105906;1277;24387;-87
2022/05/29 07:38:40;;;;;;;11.30;5.10;;;;;;;12.57;61.13;97611.88;105927;1277;23844;-86
2022/05/29 07:43:56;;;;;;;10.40;4.60;;;;;;;12.74;61.69;97606.39;105935;1278;24095;-87
2022/05/29 07:46:24;;;;;;;9.60;4.50;;;;;;;12.94;60.84;97603.47;105887;1277;25602;-86
2022/05/29 07:48:52;;;;;;;9.80;4.00;;;;;;;13.07;59.86;97605.27;105820;1277;25580;-85
2022/05/29 07:51:20;;;;;;;7.40;3.80;;;;;;;13.20;59.00;97610.21;105989;1278;22651;-86
2022/05/29 07:53:48;;;;;;;6.70;3.90;;;;;;;13.26;56.97;97605.96;106487;1278;24338;-86
2022/05/29 07:56:16;;;;;;;9.20;3.90;;;;;;;13.24;55.38;97610.60;106316;1277;25326;-86
2022/05/29 07:58:44;;;;;;;8.90;3.80;;;;;;;13.17;55.82;97612.62;105991;1277;23227;-85
2022/05/29 08:01:12;;;;;;;10.80;4.10;;;;;;;13.05;56.56;97610.33;105834;1277;24437;-84
2022/05/29 08:03:41;;;;;;;9.40;4.10;;;;;;;13.10;56.28;97605.06;105827;1277;22561;-84
2022/05/29 08:06:09;;;;;;;9.30;4.10;;;;;;;13.19;56.14;97608.16;105893;1277;22553;-87
2022/05/29 08:08:38;;;;;;;7.20;3.60;;;;;;;13.24;55.17;97609.29;105975;1278;22582;-85
2022/05/29 08:11:07;;;;;;;8.40;3.70;;;;;;;13.35;56.45;97608.15;105951;1277;24081;-86
2022/05/29 08:13:37;;;;;;;11.00;3.90;;;;;;;13.43;56.24;97612.19;105883;1278;22722;-84
2022/05/29 08:16:05;;;;;;;6.50;3.70;;;;;;;13.57;55.74;97608.83;106032;1277;22736;-86
2022/05/29 08:18:33;;;;;;;11.10;4.40;;;;;;;13.81;56.50;97609.69;106052;1277;25693;-86
2022/05/29 08:21:01;;;;;;;9.20;3.80;;;;;;;13.85;55.05;97616.17;105961;1278;24434;-85
2022/05/29 08:23:29;;;;;;;9.20;4.00;;;;;;;13.82;55.84;97615.59;105836;1277;22559;-84
2022/05/29 08:31:30;;;;;;;6.10;3.10;;;;;;;13.72;54.68;97611.11;105935;1277;22713;-86
2022/05/29 08:33:58;;;;;;;9.70;3.60;;;;;;;13.96;55.86;97612.35;105904;1277;22559;-87
2022/05/29 08:36:26;;;;;;;7.70;3.60;;;;;;;14.25;54.69;97606.82;105882;1277;22796;-85
2022/05/29 08:38:56;;;;;;;9.00;4.50;;;;;;;14.48;53.54;97605.30;105979;1278;25499;-85
2022/05/29 08:41:24;;;;;;;6.60;3.60;;;;;;;14.61;53.36;97600.73;105947;1277;25362;-86
2022/05/29 08:44:06;;;;;;;6.90;3.70;;;;;;;14.64;52.68;97601.46;105984;1277;25653;-86
2022/05/29 08:46:39;;;;;;;7.10;3.30;;;;;;;14.37;50.67;97600.77;106122;1277;22674;-86
2022/05/29 08:49:13;;;;;;;7.30;3.70;;;;;;;14.07;51.62;97594.58;106412;1278;25014;-86
2022/05/29 08:52:12;;;;;;;7.90;3.80;;;;;;;14.17;52.84;97586.45;106241;1277;22753;-87
2022/05/29 08:54:48;;;;;;;8.80;3.30;;;;;;;14.40;51.89;97589.27;106128;1278;24282;-85
2022/05/29 08:57:41;;;;;;;5.40;2.70;;;;;;;14.53;51.39;97591.60;105836;1278;22544;-85
2022/05/29 09:00:24;;;;;;;7.30;3.10;;;;;;;14.64;49.35;97587.73;105959;1277;22620;-86
2022/05/29 09:03:20;;;;;;;7.60;3.30;;;;;;;14.82;51.48;97577.70;105827;1277;23932;-86
2022/05/29 09:06:03;;;;;;;7.90;3.40;;;;;;;15.38;51.93;97576.39;106022;1278;25430;-84
2022/05/29 09:08:38;;;;;;;6.40;4.10;;;;;;;15.72;50.20;97572.80;105997;1278;22710;-83
2022/05/29 09:11:11;;;;;;;9.10;4.10;;;;;;;15.88;50.66;97575.40;105922;1277;25502;-85
2022/05/29 09:13:46;;;;;;;8.00;3.60;;;;;;;15.89;49.13;97572.00;106092;1278;24400;-83
2022/05/29 09:16:18;;;;;;;5.90;2.70;;;;;;;15.86;47.89;97572.67;105849;1277;23489;-84
2022/05/29 09:19:13;;;;;;;5.90;3.00;;;;;;;15.61;47.82;97577.63;105781;1277;22598;-84
2022/05/29 09:21:54;;;;;;;7.60;3.80;;;;;;;15.48;48.90;97580.07;105993;1278;22557;-85
2022/05/29 09:24:38;;;;;;;7.20;3.40;;;;;;;15.46;49.07;97578.54;105901;1280;22586;-85
2022/05/29 09:27:10;;;;;;;8.10;3.80;;;;;;;15.62;48.30;97577.88;105952;1280;24294;-85
2022/05/29 09:29:38;;;;;;;6.80;3.50;;;;;;;15.92;48.60;97581.48;105983;1280;22593;-85
2022/05/29 09:32:14;;;;;;;9.00;3.20;;;;;;;15.95;46.51;97583.14;105941;1280;25296;-84
2022/05/29 09:34:48;;;;;;;6.10;3.20;;;;;;;15.67;46.20;97583.88;105935;1280;22554;-87
2022/05/29 09:37:58;;;;;;;7.40;3.70;;;;;;;15.44;46.58;97578.69;105753;1280;24799;-85
2022/05/29 09:40:44;;;;;;;5.00;2.70;;;;;;;15.07;46.48;97581.03;106356;1283;22708;-87
2022/05/29 09:43:14;;;;;;;5.80;3.10;;;;;;;14.89;47.06;97576.98;106402;1283;24322;-89
2022/05/29 09:45:43;;;;;;;6.60;2.90;;;;;;;14.78;46.57;97575.60;105571;1283;22718;-88
2022/05/29 09:51:28;;;;;;;7.40;3.30;;;;;;;14.96;48.32;97562.14;105529;1283;22595;-90
2022/05/29 09:54:01;;;;;;;7.10;3.30;;;;;;;15.44;47.41;97557.52;105447;1283;22619;-88
2022/05/29 09:56:34;;;;;;;7.60;3.40;;;;;;;15.83;47.55;97553.17;105493;1282;22703;-89
2022/05/29 09:59:13;;;;;;;9.20;3.40;;;;;;;16.36;48.61;97543.56;105435;1282;22568;-84
2022/05/29 10:01:45;;;;;;;7.10;3.30;;;;;;;16.93;48.74;97540.17;105334;1283;24366;-84
2022/05/29 10:04:29;;;;;;;7.80;3.90;;;;;;;17.45;47.94;97539.46;105428;1283;23347;-87
2022/05/29 10:06:58;;;;;;;7.00;2.90;;;;;;;17.64;44.10;97530.95;105842;1283;23012;-84
2022/05/29 10:09:27;;;;;;;6.30;3.20;;;;;;;17.16;43.73;97531.80;105685;1283;25601;-82
2022/05/29 10:12:14;;;;;;;5.80;3.00;;;;;;;16.73;43.65;97528.13;105773;1280;24289;-80
2022/05/29 10:14:44;;;;;;;5.00;3.00;;;;;;;16.32;44.67;97530.09;105897;1280;22704;-79
2022/05/29 10:17:16;;;;;;;7.00;3.30;;;;;;;16.32;45.85;97523.58;105919;1280;22559;-78
2022/05/29 10:19:46;;;;;;;7.20;3.30;;;;;;;16.55;44.47;97523.98;105776;1280;326273;-80
2022/05/29 10:22:29;;;;;;;6.60;3.10;;;;;;;16.61;44.86;97518.31;105980;1278;22625;-79
2022/05/29 10:24:59;;;;;;;8.40;3.50;;;;;;;16.69;45.47;97514.58;106014;1278;22583;-80
2022/05/29 10:27:34;;;;;;;6.70;3.80;;;;;;;16.90;44.52;97512.11;105992;1277;22546;-80
2022/05/29 10:30:11;;;;;;;6.60;3.10;;;;;;;16.94;44.96;97514.31;105730;1280;22576;-79
2022/05/29 10:32:42;;;;;;;6.20;3.10;;;;;;;16.79;44.24;97516.01;105834;1278;22780;-79
2022/05/29 10:35:16;;;;;;;6.50;3.00;;;;;;;16.73;44.76;97528.66;106006;1277;22850;-78
2022/05/29 10:37:45;;;;;;;5.50;3.10;;;;;;;17.14;44.57;97527.27;105886;1280;22703;-77
2022/05/29 10:40:33;;;;;;;5.20;2.60;;;;;;;17.63;43.15;97533.04;105745;1278;22559;-80
2022/05/29 10:43:04;;;;;;;5.70;2.30;;;;;;;17.68;42.78;97532.91;105740;1278;22720;-81
2022/05/29 10:45:43;;;;;;;6.60;3.30;;;;;;;17.64;43.07;97530.95;106005;1278;22701;-80
2022/05/29 10:48:27;;;;;;;7.70;2.40;;;;;;;17.65;43.66;97529.35;105804;1278;24202;-80
2022/05/29 10:51:07;;;;;;;5.90;2.50;;;;;;;18.04;43.62;97523.23;105940;1278;22861;-82
2022/05/29 10:53:42;;;;;;;5.90;2.50;;;;;;;18.31;41.77;97521.99;106014;1278;24273;-79
2022/05/29 10:56:22;;;;;;;6.80;2.50;;;;;;;18.41;40.08;97518.31;105884;1280;22631;-79
2022/05/29 10:59:05;;;;;;;7.70;3.30;;;;;;;18.65;40.64;97512.77;105978;1278;22563;-81
2022/05/29 11:04:56;;;;;;;6.50;3.20;;;;;;;18.97;38.85;97503.33;106112;1280;25419;-81
2022/05/29 11:07:30;;;;;;;6.90;3.40;;;;;;;18.81;39.72;97501.25;106206;1277;22713;-79
2022/05/29 11:10:09;;;;;;;5.70;2.80;;;;;;;18.67;38.55;97504.48;106061;1280;25318;-80
2022/05/29 11:12:58;;;;;;;8.30;3.10;;;;;;;18.65;38.67;97498.19;105683;1277;25298;-80
2022/05/29 11:15:51;;;;;;;6.10;2.60;;;;;;;18.53;37.01;97493.36;105867;1277;24378;-83
2022/05/29 11:18:40;;;;;;;5.00;2.40;;;;;;;18.18;38.23;97495.79;105968;1277;23204;-86
2022/05/29 11:21:29;;;;;;;7.50;3.10;;;;;;;17.94;37.38;97499.89;106126;1277;22673;-89
2022/05/29 11:24:15;;;;;;;5.30;2.80;;;;;;;17.88;38.30;97497.58;106066;1277;25556;-85
2022/05/29 11:27:12;;;;;;;5.40;2.90;;;;;;;17.96;36.40;97496.19;106014;1278;22678;-82
2022/05/29 11:30:15;;;;;;;6.20;2.50;;;;;;;17.76;37.38;97499.02;105906;1278;24215;-83
2022/05/29 11:32:49;;;;;;;6.10;2.60;;;;;;;17.81;36.60;97496.48;105950;1277;23661;-83
2022/05/29 11:35:36;;;;;;;9.90;3.30;;;;;;;18.01;36.94;97485.55;106044;1280;25365;-81
2022/05/29 11:38:17;;;;;;;19.30;4.30;;;;;;;18.36;38.26;97477.30;106010;1280;22705;-83
2022/05/29 11:41:04;;;;;;;5.40;2.50;;;;;;;18.86;38.47;97472.09;106001;1277;24231;-82
2022/05/29 11:43:51;;;;;;;5.70;2.10;;;;;;;19.13;35.42;97472.00;105974;1278;22824;-83
2022/05/29 11:52:15;;;;;;;4.10;2.30;;;;;;;18.06;34.23;97470.70;106030;1278;25353;-84
2022/05/29 11:54:50;;;;;;;5.70;2.50;;;;;;;17.84;34.86;97460.27;106095;1278;22867;-85
2022/05/29 11:57:27;;;;;;;4.10;2.20;;;;;;;17.74;34.66;97452.55;105990;1278;25324;-85
2022/05/29 12:00:03;;;;;;;7.20;2.80;;;;;;;17.84;36.20;97444.77;106013;1278;22785;-82
2022/05/29 12:02:55;;;;;;;5.70;2.20;;;;;;;18.04;35.70;97441.99;105906;1278;22701;-80
2022/05/29 12:05:37;;;;;;;5.30;2.40;;;;;;;18.22;36.29;97432.53;106006;1280;22727;-82
2022/05/29 12:08:18;;;;;;;7.20;3.50;;;;;;;18.39;36.74;97421.23;106054;1280;25305;-82
2022/05/29 12:10:52;;;;;;;6.20;4.00;;;;;;;18.43;36.98;97416.95;106035;1280;25465;-81
2022/05/29 12:13:24;;;;;;;6.10;2.90;;;;;;;18.45;37.18;97419.46;106045;1278;25472;-81
2022/05/29 12:16:10;;;;;;;6.60;3.00;;;;;;;18.54;37.47;97426.66;106488;1279;22571;-87
2022/05/29 12:18:47;;;;;;;4.80;2.80;;;;;;;18.66;36.52;97437.39;106145;1278;22573;-83
2022/05/29 12:21:27;;;;;;;5.10;2.70;;;;;;;18.63;36.30;97439.67;106290;1278;22552;-85
2022/05/29 12:24:00;;;;;;;6.20;2.90;;;;;;;18.47;36.06;97441.98;106106;1280;22550;-80
2022/05/29 12:26:52;;;;;;;5.30;3.00;;;;;;;18.28;36.52;97445.27;106174;1280;25406;-79
2022/05/29 12:29:27;;;;;;;5.80;2.60;;;;;;;18.21;36.67;97444.27;105987;1278;24237;-82
2022/05/29 12:32:01;;;;;;;5.40;2.80;;;;;;;18.10;36.36;97447.42;105945;1280;25992;-78
2022/05/29 12:34:39;;;;;;;6.70;3.60;;;;;;;18.03;36.43;97455.98;105931;1278;24317;-82